Terminal Aerodrome Forecast
Issued by NWS

Home | Current Version | Previous Version | Text Only | Print | Product List | Glossary On
Versions: 1 2 3 4 5 6 7 8 9 10 11 12
000
FTUS44 KEPZ 300500
TAFDMN
TAF
KDMN 300520Z 3006/3106 08012G20KT P6SM SHRA OVC035
     FM301200 08021G28KT 3SM -RA OVC025
     FM301900 10008KT P6SM -SHRA BKN025=

USA.gov is the U.S. government's official web portal to all federal, state and local government web resources and services.